createdAt,value
2022-11-29T00:01:17.210Z,3.20
2022-11-29T00:03:44.425Z,3.10
2022-11-29T00:06:16.285Z,3.20
2022-11-29T00:08:43.628Z,3.20
2022-11-29T00:11:12.492Z,3.00
2022-11-29T00:13:39.659Z,3.00
2022-11-29T00:16:10.858Z,3.00
2022-11-29T00:18:38.119Z,3.00
2022-11-29T00:21:08.904Z,3.00
2022-11-29T00:23:36.274Z,2.90
2022-11-29T00:26:04.997Z,3.00
2022-11-29T00:28:32.224Z,3.10
2022-11-29T00:30:59.432Z,3.10
2022-11-29T00:33:26.896Z,3.10
2022-11-29T00:35:54.045Z,3.10
2022-11-29T00:38:21.266Z,3.00
2022-11-29T00:40:52.559Z,3.00
2022-11-29T00:43:19.759Z,3.10
2022-11-29T00:45:46.856Z,3.10
2022-11-29T00:48:14.061Z,3.10
2022-11-29T00:50:41.454Z,3.10
2022-11-29T00:53:08.622Z,3.20
2022-11-29T00:55:35.788Z,3.10
2022-11-29T00:58:02.901Z,3.10
2022-11-29T01:00:30.273Z,3.10
2022-11-29T01:02:57.351Z,3.10
2022-11-29T01:05:24.541Z,3.20
2022-11-29T01:07:51.637Z,3.20
2022-11-29T01:10:18.844Z,3.10
2022-11-29T01:12:46.222Z,3.10
2022-11-29T01:15:13.693Z,3.10
2022-11-29T01:17:41.312Z,3.00
2022-11-29T01:20:09.276Z,3.10
2022-11-29T01:22:36.505Z,3.20
2022-11-29T01:25:03.883Z,3.10
2022-11-29T01:27:30.999Z,3.20
2022-11-29T01:29:58.039Z,3.20
2022-11-29T01:32:25.424Z,3.20
2022-11-29T01:34:52.781Z,3.20
2022-11-29T01:37:19.995Z,3.20
2022-11-29T01:39:47.090Z,3.10
2022-11-29T01:42:14.370Z,3.20
2022-11-29T01:44:50.678Z,3.20
2022-11-29T01:47:18.490Z,3.30
2022-11-29T01:49:46.875Z,3.30
2022-11-29T01:52:15.858Z,3.30
2022-11-29T01:54:45.392Z,3.30
2022-11-29T01:57:12.835Z,3.40
2022-11-29T01:59:42.412Z,3.30
2022-11-29T02:02:14.218Z,3.20
2022-11-29T02:04:42.697Z,3.10
2022-11-29T02:07:10.274Z,3.20
2022-11-29T02:09:37.486Z,3.20
2022-11-29T02:12:31.445Z,3.20
2022-11-29T02:15:23.107Z,3.30
2022-11-29T02:18:05.747Z,3.40
2022-11-29T02:20:38.848Z,3.30
2022-11-29T02:23:05.870Z,3.30
2022-11-29T02:25:51.899Z,3.40
2022-11-29T02:28:30.624Z,3.40
2022-11-29T02:31:34.647Z,3.20
2022-11-29T02:34:07.739Z,3.30
2022-11-29T02:36:49.714Z,3.10
2022-11-29T02:39:54.325Z,3.10
2022-11-29T02:42:26.218Z,3.20
2022-11-29T02:45:10.686Z,3.20
2022-11-29T02:48:00.567Z,3.30
2022-11-29T02:50:38.813Z,3.20
2022-11-29T02:53:21.776Z,3.20
2022-11-29T02:55:53.888Z,3.20
2022-11-29T02:58:45.558Z,3.30
2022-11-29T03:01:50.903Z,3.30
2022-11-29T03:04:34.437Z,3.30
2022-11-29T03:07:25.134Z,3.20
2022-11-29T03:10:06.509Z,3.30
2022-11-29T03:12:41.358Z,3.20
2022-11-29T03:15:26.970Z,3.20
2022-11-29T03:18:18.321Z,3.20
2022-11-29T03:21:22.989Z,3.20
2022-11-29T03:23:59.356Z,3.20
2022-11-29T03:26:54.947Z,3.20
2022-11-29T03:29:29.562Z,3.20
2022-11-29T03:32:07.893Z,3.10
2022-11-29T03:34:47.067Z,3.00
2022-11-29T03:37:46.032Z,3.10
2022-11-29T03:40:19.294Z,3.20
2022-11-29T03:42:51.568Z,3.20
2022-11-29T03:45:42.892Z,3.20
2022-11-29T03:48:13.587Z,3.20
2022-11-29T03:50:55.607Z,3.10
2022-11-29T03:53:43.967Z,3.10
2022-11-29T03:56:31.066Z,3.10
2022-11-29T03:59:09.257Z,3.10
2022-11-29T04:02:07.212Z,3.00
2022-11-29T04:04:52.975Z,3.00
2022-11-29T04:07:56.393Z,3.00
2022-11-29T04:10:36.265Z,3.00
2022-11-29T04:13:19.244Z,3.00
2022-11-29T04:15:58.400Z,3.00
2022-11-29T04:18:50.283Z,2.90
2022-11-29T04:21:44.983Z,3.00
2022-11-29T04:24:32.968Z,2.90
2022-11-29T04:27:05.460Z,2.90
2022-11-29T04:29:48.421Z,2.90
2022-11-29T04:32:43.417Z,2.90
2022-11-29T04:35:48.847Z,3.00
2022-11-29T04:38:28.807Z,2.90
2022-11-29T04:41:05.806Z,2.80
2022-11-29T04:43:57.463Z,2.80
2022-11-29T04:46:24.584Z,2.80
2022-11-29T04:49:00.455Z,2.90
2022-11-29T04:51:55.241Z,2.80
2022-11-29T04:54:47.513Z,2.90
2022-11-29T04:57:37.554Z,2.90
2022-11-29T05:00:12.638Z,2.90
2022-11-29T05:02:59.180Z,2.90
2022-11-29T05:05:48.103Z,2.90
2022-11-29T05:08:46.237Z,2.90
2022-11-29T05:11:41.461Z,3.00
2022-11-29T05:14:17.740Z,3.00
2022-11-29T05:17:25.642Z,2.90
2022-11-29T05:20:20.800Z,3.00
2022-11-29T05:23:29.659Z,3.00
2022-11-29T05:26:18.732Z,3.00
2022-11-29T05:28:51.244Z,3.00
2022-11-29T05:31:27.459Z,3.00
2022-11-29T05:34:17.093Z,2.90
2022-11-29T05:36:50.543Z,2.90
2022-11-29T05:39:44.290Z,2.90
2022-11-29T05:42:29.442Z,2.90
2022-11-29T05:45:17.380Z,3.00
2022-11-29T05:47:52.965Z,3.00
2022-11-29T05:50:33.700Z,3.00
2022-11-29T05:53:28.806Z,2.90
2022-11-29T05:56:15.797Z,2.90
2022-11-29T05:58:59.696Z,2.90
2022-11-29T06:01:33.191Z,3.00
2022-11-29T06:04:22.448Z,3.00
2022-11-29T06:07:03.833Z,3.00
2022-11-29T06:09:38.160Z,2.90
2022-11-29T06:12:15.799Z,2.90
2022-11-29T06:14:45.449Z,2.90
2022-11-29T06:17:52.577Z,2.90
2022-11-29T06:20:39.180Z,2.90
2022-11-29T06:23:06.241Z,2.90
2022-11-29T06:26:00.637Z,2.90
2022-11-29T06:28:38.695Z,2.90
2022-11-29T06:31:26.012Z,3.00
2022-11-29T06:34:01.267Z,3.00
2022-11-29T06:36:34.728Z,2.90
2022-11-29T06:39:02.061Z,3.00
2022-11-29T06:41:29.557Z,2.90
2022-11-29T06:43:57.097Z,2.90
2022-11-29T06:46:28.136Z,2.90
2022-11-29T06:49:02.077Z,2.90
2022-11-29T06:51:40.621Z,3.00
2022-11-29T06:54:23.581Z,2.90
2022-11-29T06:56:50.504Z,2.90
2022-11-29T06:59:49.443Z,2.80
2022-11-29T07:02:49.018Z,2.80
2022-11-29T07:05:19.415Z,2.90
2022-11-29T07:07:48.658Z,2.90
2022-11-29T07:10:19.946Z,2.90
2022-11-29T07:12:49.267Z,3.00
2022-11-29T07:15:18.432Z,3.00
2022-11-29T07:17:58.969Z,3.10
2022-11-29T07:20:31.953Z,3.10
2022-11-29T07:23:17.969Z,3.10
2022-11-29T07:26:09.789Z,3.10
2022-11-29T07:28:43.336Z,3.00
2022-11-29T07:31:33.726Z,3.10
2022-11-29T07:34:10.696Z,3.20
2022-11-29T07:36:43.557Z,3.10
2022-11-29T07:39:18.675Z,3.20
2022-11-29T07:41:56.914Z,3.20
2022-11-29T07:44:36.042Z,3.10
2022-11-29T07:47:03.394Z,3.20
2022-11-29T07:49:30.574Z,3.20
2022-11-29T07:51:57.777Z,3.20
2022-11-29T07:54:24.867Z,3.20
2022-11-29T07:56:51.839Z,3.30
2022-11-29T07:59:19.146Z,3.40
2022-11-29T08:01:46.315Z,3.40
2022-11-29T08:04:14.226Z,3.40
2022-11-29T08:06:41.670Z,3.40
2022-11-29T08:09:08.799Z,3.30
2022-11-29T08:11:36.145Z,3.40
2022-11-29T08:14:04.562Z,3.40
2022-11-29T08:16:32.041Z,3.50
2022-11-29T08:18:59.369Z,3.60
2022-11-29T08:21:26.678Z,3.60
2022-11-29T08:23:53.887Z,3.60
2022-11-29T08:26:21.226Z,3.60
2022-11-29T08:28:54.528Z,3.60
2022-11-29T08:31:21.923Z,3.70
2022-11-29T08:33:49.266Z,3.70
2022-11-29T08:36:18.587Z,3.70
2022-11-29T08:38:45.951Z,3.90
2022-11-29T08:41:14.233Z,3.80
2022-11-29T08:43:41.842Z,3.90
2022-11-29T08:46:13.671Z,3.80
2022-11-29T08:48:43.973Z,3.80
2022-11-29T08:51:11.107Z,3.80
2022-11-29T08:53:46.591Z,3.90
2022-11-29T08:57:04.874Z,3.90
2022-11-29T08:59:08.169Z,3.90
2022-11-29T09:01:35.423Z,3.90
2022-11-29T09:04:02.996Z,3.80
2022-11-29T09:06:34.972Z,3.80
2022-11-29T09:09:02.119Z,3.80
2022-11-29T09:11:29.570Z,3.80
2022-11-29T09:13:58.692Z,3.70
2022-11-29T09:16:27.496Z,3.70
2022-11-29T09:18:56.233Z,3.80
2022-11-29T09:21:27.292Z,3.90
2022-11-29T09:23:58.937Z,4.00
2022-11-29T09:26:28.237Z,4.10
2022-11-29T09:28:55.500Z,4.10
2022-11-29T09:31:22.636Z,4.10
2022-11-29T09:33:49.871Z,4.30
2022-11-29T09:36:17.067Z,4.30
2022-11-29T09:38:44.238Z,4.20
2022-11-29T09:41:48.340Z,4.30
2022-11-29T09:44:41.027Z,4.30
2022-11-29T09:47:31.491Z,4.30
2022-11-29T09:50:21.941Z,4.20
2022-11-29T09:52:51.870Z,4.30
2022-11-29T09:55:37.530Z,4.10
2022-11-29T09:58:04.855Z,4.00
2022-11-29T10:00:50.523Z,4.00
2022-11-29T10:03:25.666Z,4.00
2022-11-29T10:06:01.426Z,4.00
2022-11-29T10:08:36.997Z,4.00
2022-11-29T10:11:17.246Z,4.00
2022-11-29T10:13:48.418Z,3.90
2022-11-29T10:16:40.151Z,3.90
2022-11-29T10:19:25.797Z,4.00
2022-11-29T10:22:23.690Z,3.80
2022-11-29T10:24:52.783Z,3.80
2022-11-29T10:27:24.017Z,3.80
2022-11-29T10:29:51.511Z,3.60
2022-11-29T10:32:20.649Z,3.60
2022-11-29T10:34:50.827Z,3.70
2022-11-29T10:37:19.595Z,3.70
2022-11-29T10:39:58.874Z,3.70
2022-11-29T10:42:45.741Z,3.80
2022-11-29T10:45:35.262Z,3.90
2022-11-29T10:48:12.913Z,3.80
2022-11-29T10:50:41.992Z,4.20
2022-11-29T10:53:17.119Z,3.80
2022-11-29T10:56:07.655Z,3.80
2022-11-29T10:58:34.963Z,3.70
2022-11-29T11:01:06.961Z,3.80
2022-11-29T11:03:41.577Z,3.70
2022-11-29T11:06:12.470Z,3.80
2022-11-29T11:08:41.818Z,3.80
2022-11-29T11:11:09.050Z,3.80
2022-11-29T11:13:36.637Z,3.90
2022-11-29T11:16:22.452Z,3.90
2022-11-29T11:18:49.631Z,3.80
2022-11-29T11:21:18.590Z,5.20
2022-11-29T11:23:55.970Z,4.00
2022-11-29T11:26:23.274Z,4.20
2022-11-29T11:28:56.206Z,4.30
2022-11-29T11:31:34.768Z,4.20
2022-11-29T11:34:27.638Z,4.30
2022-11-29T11:37:11.756Z,4.20
2022-11-29T11:39:38.950Z,4.10
2022-11-29T11:42:24.831Z,4.00
2022-11-29T11:44:53.692Z,3.90
2022-11-29T11:47:22.736Z,3.90
2022-11-29T11:50:02.576Z,3.90
2022-11-29T11:52:30.495Z,4.00
2022-11-29T11:55:25.645Z,4.00
2022-11-29T11:58:14.735Z,4.10
2022-11-29T12:01:06.675Z,4.10
2022-11-29T12:03:43.553Z,4.10
2022-11-29T12:06:52.660Z,4.10
2022-11-29T12:09:49.805Z,4.10
2022-11-29T12:12:39.675Z,4.10
2022-11-29T12:15:16.496Z,4.20
2022-11-29T12:18:17.128Z,4.10
2022-11-29T12:21:01.720Z,4.10
2022-11-29T12:23:39.517Z,4.10
2022-11-29T12:26:41.178Z,4.00
2022-11-29T12:29:04.239Z,4.10
2022-11-29T12:31:37.986Z,4.20
2022-11-29T12:34:35.164Z,4.00
2022-11-29T12:37:13.705Z,4.00
2022-11-29T12:40:10.011Z,3.90
2022-11-29T12:42:53.108Z,3.80
2022-11-29T12:45:27.106Z,3.80
2022-11-29T12:48:13.929Z,3.90
2022-11-29T12:51:03.155Z,3.90
2022-11-29T12:53:34.569Z,3.80
2022-11-29T12:56:01.590Z,4.00
2022-11-29T12:58:46.015Z,4.20
2022-11-29T13:01:44.321Z,4.10
2022-11-29T13:04:25.545Z,4.10
2022-11-29T13:06:52.614Z,4.10
2022-11-29T13:09:22.558Z,4.10
2022-11-29T13:12:06.940Z,4.10
2022-11-29T13:14:59.478Z,4.10
2022-11-29T13:17:45.157Z,4.00
2022-11-29T13:20:18.126Z,4.00
2022-11-29T13:22:45.279Z,4.00
2022-11-29T13:25:33.992Z,3.90
2022-11-29T13:28:12.201Z,3.80
2022-11-29T13:30:39.358Z,3.80
2022-11-29T13:33:19.683Z,3.60
2022-11-29T13:36:08.829Z,3.70
2022-11-29T13:39:04.658Z,3.80
2022-11-29T13:41:40.609Z,4.00
2022-11-29T13:44:56.229Z,4.00
2022-11-29T13:47:23.400Z,3.90
2022-11-29T13:50:02.434Z,3.80
2022-11-29T13:52:44.010Z,3.80
2022-11-29T13:55:11.704Z,4.00
2022-11-29T14:00:45.469Z,4.10
2022-11-29T14:03:26.126Z,4.00
2022-11-29T14:06:02.290Z,3.90
2022-11-29T14:08:48.089Z,3.90
2022-11-29T14:11:52.654Z,3.90
2022-11-29T14:14:42.362Z,3.90
2022-11-29T14:17:47.629Z,4.10
2022-11-29T14:20:23.808Z,4.00
2022-11-29T14:23:06.091Z,3.90
2022-11-29T14:25:52.807Z,3.90
2022-11-29T14:28:23.269Z,3.70
2022-11-29T14:30:51.881Z,3.70
2022-11-29T14:33:36.235Z,3.60
2022-11-29T14:36:15.325Z,3.60
2022-11-29T14:38:55.591Z,3.60
2022-11-29T14:41:55.547Z,3.60
2022-11-29T14:44:26.028Z,3.50
2022-11-29T14:47:15.004Z,3.50
2022-11-29T14:49:43.725Z,3.40
2022-11-29T14:52:13.881Z,3.30
2022-11-29T14:55:15.900Z,3.50
2022-11-29T14:57:52.591Z,3.40
2022-11-29T15:00:23.846Z,3.50
2022-11-29T15:03:03.745Z,3.40
2022-11-29T15:05:55.611Z,3.50
2022-11-29T15:08:35.167Z,3.60
2022-11-29T15:11:15.050Z,3.50
2022-11-29T15:14:08.460Z,3.50
2022-11-29T15:17:01.545Z,3.50
2022-11-29T15:19:53.393Z,3.50
2022-11-29T15:22:21.223Z,3.50
2022-11-29T15:25:01.097Z,3.60
2022-11-29T15:27:28.367Z,3.50
2022-11-29T15:29:55.509Z,3.50
2022-11-29T15:32:31.123Z,3.50
2022-11-29T15:34:58.273Z,3.50
2022-11-29T15:37:34.297Z,3.60
2022-11-29T15:40:15.254Z,3.60
2022-11-29T15:42:54.689Z,3.60
2022-11-29T15:45:35.086Z,3.40
2022-11-29T15:48:25.197Z,3.50
2022-11-29T15:51:04.792Z,3.50
2022-11-29T15:53:47.390Z,3.50
2022-11-29T15:56:24.981Z,3.50
2022-11-29T15:58:52.779Z,3.50
2022-11-29T16:01:20.985Z,3.50
2022-11-29T16:03:51.020Z,3.50
2022-11-29T16:06:22.280Z,3.30
2022-11-29T16:08:49.642Z,3.20
2022-11-29T16:11:19.460Z,3.20
2022-11-29T16:14:03.599Z,3.20
2022-11-29T16:16:33.076Z,3.20
2022-11-29T16:19:23.898Z,3.00
2022-11-29T16:22:12.311Z,2.90
2022-11-29T16:24:52.972Z,2.80
2022-11-29T16:27:21.348Z,2.80
2022-11-29T16:29:48.573Z,2.80
2022-11-29T16:32:35.014Z,2.90
2022-11-29T16:35:13.255Z,3.00
2022-11-29T16:37:42.678Z,3.10
2022-11-29T16:40:29.715Z,3.10
2022-11-29T16:43:20.195Z,3.20
2022-11-29T16:45:47.290Z,3.20
2022-11-29T16:48:38.301Z,3.20
2022-11-29T16:51:12.692Z,3.10
2022-11-29T16:53:49.912Z,3.00
2022-11-29T16:56:18.247Z,3.00
2022-11-29T16:59:20.845Z,3.00
2022-11-29T17:01:35.119Z,3.00
2022-11-29T17:04:02.302Z,3.10
2022-11-29T17:06:29.432Z,3.10
2022-11-29T17:08:57.785Z,3.10
2022-11-29T17:11:25.216Z,3.10
2022-11-29T17:13:52.700Z,2.90
2022-11-29T17:16:21.475Z,2.70
2022-11-29T17:18:48.964Z,2.60
2022-11-29T17:21:20.459Z,2.50
2022-11-29T17:23:47.890Z,2.50
2022-11-29T17:26:15.631Z,2.50
2022-11-29T17:28:45.740Z,2.50
2022-11-29T17:31:14.128Z,2.40
2022-11-29T17:33:41.391Z,2.50
2022-11-29T17:36:10.346Z,2.50
2022-11-29T17:38:37.581Z,2.50
2022-11-29T17:41:08.758Z,2.50
2022-11-29T17:43:36.566Z,2.40
2022-11-29T17:46:10.845Z,2.40
2022-11-29T17:48:40.794Z,2.30
2022-11-29T17:51:28.781Z,2.20
2022-11-29T17:53:55.668Z,2.10
2022-11-29T17:56:25.889Z,2.20
2022-11-29T17:58:54.156Z,2.20
2022-11-29T18:01:23.505Z,2.10
2022-11-29T18:03:52.855Z,2.20
2022-11-29T18:06:21.376Z,2.20
2022-11-29T18:08:50.608Z,2.20
2022-11-29T18:11:31.511Z,2.30
2022-11-29T18:13:58.947Z,2.30
2022-11-29T18:16:27.865Z,2.20
2022-11-29T18:18:56.179Z,2.10
2022-11-29T18:21:23.487Z,2.10
2022-11-29T18:23:50.978Z,2.20
2022-11-29T18:26:22.459Z,2.30
2022-11-29T18:28:49.947Z,2.40
2022-11-29T18:31:24.908Z,2.40
2022-11-29T18:33:56.717Z,2.60
2022-11-29T18:36:32.046Z,2.50
2022-11-29T18:39:07.572Z,2.60
2022-11-29T18:41:35.223Z,2.60
2022-11-29T18:44:10.162Z,2.60
2022-11-29T18:46:37.935Z,2.50
2022-11-29T18:49:11.090Z,2.50
2022-11-29T18:51:38.553Z,2.50
2022-11-29T18:54:06.432Z,2.50
2022-11-29T18:56:34.883Z,2.50
2022-11-29T18:59:07.305Z,2.50
2022-11-29T19:01:35.649Z,2.50
2022-11-29T19:04:02.937Z,2.50
2022-11-29T19:06:39.260Z,2.50
2022-11-29T19:09:07.903Z,2.50
2022-11-29T19:11:35.151Z,2.40
2022-11-29T19:14:11.413Z,2.40
2022-11-29T19:16:40.028Z,2.30
2022-11-29T19:19:07.125Z,2.40
2022-11-29T19:21:37.303Z,2.40
2022-11-29T19:24:05.721Z,2.20
2022-11-29T19:26:33.200Z,2.30
2022-11-29T19:29:01.052Z,2.30
2022-11-29T19:31:28.711Z,2.20
2022-11-29T19:33:56.364Z,2.30
2022-11-29T19:36:25.547Z,2.40
2022-11-29T19:38:54.219Z,2.40
2022-11-29T19:41:30.039Z,2.40
2022-11-29T19:43:58.582Z,2.50
2022-11-29T19:46:34.135Z,2.60
2022-11-29T19:49:01.545Z,2.60
2022-11-29T19:51:29.600Z,2.60
2022-11-29T19:53:58.743Z,2.70
2022-11-29T19:56:25.842Z,2.60
2022-11-29T19:58:52.934Z,2.60
2022-11-29T20:01:25.388Z,2.60
2022-11-29T20:03:52.780Z,2.60
2022-11-29T20:06:19.954Z,2.60
2022-11-29T20:08:47.328Z,2.50
2022-11-29T20:11:19.365Z,2.40
2022-11-29T20:14:44.400Z,2.30
2022-11-29T20:21:02.068Z,2.30
2022-11-29T20:23:35.368Z,2.40
2022-11-29T20:26:02.724Z,2.30
2022-11-29T20:28:30.257Z,2.30
2022-11-29T20:30:57.429Z,2.20
2022-11-29T20:33:25.510Z,2.20
2022-11-29T20:36:16.537Z,2.20
2022-11-29T20:38:58.605Z,2.40
2022-11-29T20:41:28.852Z,2.20
2022-11-29T20:44:54.337Z,2.10
2022-11-29T20:47:25.965Z,2.10
2022-11-29T20:49:53.427Z,2.10
2022-11-29T20:52:29.997Z,2.20
2022-11-29T20:54:57.253Z,2.20
2022-11-29T20:57:24.567Z,2.20
2022-11-29T20:59:51.664Z,2.20
2022-11-29T21:05:17.152Z,2.20
2022-11-29T21:07:51.607Z,2.20
2022-11-29T21:11:14.715Z,2.30
2022-11-29T21:13:42.014Z,2.40
2022-11-29T21:16:11.576Z,2.30
2022-11-29T21:18:39.108Z,2.20
2022-11-29T21:21:23.558Z,2.20
2022-11-29T21:24:12.302Z,2.30
2022-11-29T21:26:44.925Z,2.40
2022-11-29T21:29:20.041Z,2.40
2022-11-29T21:31:48.504Z,2.20
2022-11-29T21:34:15.640Z,2.30
2022-11-29T21:36:43.243Z,2.30
2022-11-29T21:39:12.724Z,2.40
2022-11-29T21:41:39.729Z,2.30
2022-11-29T21:44:08.028Z,2.20
2022-11-29T21:46:35.687Z,2.10
2022-11-29T21:49:02.891Z,2.20
2022-11-29T21:51:29.943Z,2.20
2022-11-29T21:53:57.062Z,2.20
2022-11-29T21:56:24.211Z,2.20
2022-11-29T21:58:51.460Z,2.30
2022-11-29T22:01:19.861Z,2.20
2022-11-29T22:03:47.173Z,2.30
2022-11-29T22:06:16.714Z,2.30
2022-11-29T22:08:43.855Z,2.30
2022-11-29T22:11:15.216Z,2.30
2022-11-29T22:14:02.017Z,2.40
2022-11-29T22:16:29.691Z,2.30
2022-11-29T22:18:56.960Z,2.20
2022-11-29T22:21:24.296Z,2.30
2022-11-29T22:23:52.572Z,2.20
2022-11-29T22:26:19.847Z,2.30
2022-11-29T22:28:47.080Z,2.30
2022-11-29T22:31:14.243Z,2.20
2022-11-29T22:33:41.385Z,2.20
2022-11-29T22:36:10.624Z,2.30
2022-11-29T22:38:37.966Z,2.30
2022-11-29T22:41:09.709Z,2.30
2022-11-29T22:43:37.198Z,2.20
2022-11-29T22:46:18.810Z,2.20
2022-11-29T22:48:46.897Z,2.20
2022-11-29T22:51:15.491Z,2.30
2022-11-29T22:53:47.951Z,2.20
2022-11-29T22:56:15.145Z,2.30
2022-11-29T22:58:42.442Z,2.10
2022-11-29T23:01:11.684Z,2.20
2022-11-29T23:03:53.236Z,2.20
2022-11-29T23:06:28.267Z,2.20
2022-11-29T23:08:56.938Z,2.20
2022-11-29T23:11:26.160Z,2.30
2022-11-29T23:13:53.640Z,2.30
2022-11-29T23:16:22.527Z,2.30
2022-11-29T23:18:49.754Z,2.20
2022-11-29T23:21:21.854Z,2.20
2022-11-29T23:23:54.503Z,2.20
2022-11-29T23:26:30.394Z,2.20
2022-11-29T23:28:58.234Z,2.20
2022-11-29T23:31:25.493Z,2.20
2022-11-29T23:33:52.777Z,2.10
2022-11-29T23:36:19.916Z,2.20
2022-11-29T23:38:47.052Z,2.10
2022-11-29T23:41:14.470Z,2.20
2022-11-29T23:43:42.127Z,2.20
2022-11-29T23:46:17.157Z,2.10
2022-11-29T23:48:44.460Z,2.00
2022-11-29T23:51:11.780Z,2.10
2022-11-29T23:53:39.447Z,2.10
2022-11-29T23:56:08.458Z,2.10
2022-11-29T23:58:35.544Z,2.20
